Aviation Digital Data Service (ADDS)

Output produced by TAFs form (0204 UTC 26 June 2017)
found at http://aviationweather.gov/adds/tafs/
 
KAMA 252320Z 2600/2624 14018KT P6SM VCSH SCT040 
     TEMPO 2601/2605 VRB20G38KT 5SM -TSRA OVC020CB 
     FM261200 16008KT P6SM -SHRA OVC015 
     FM261500 16010KT P6SM OVC050